EJU59BP LIRN-LDSP
Flight info
| Callsign | EJU59BP |
|---|---|
| Flight time | 0h 42m |
| Altitude | 28000 |
| Route | BEDPI DCT MOLUX DCT RUPAX DCT VAPUP |
| Aircraft | A320/M-SDE2E3FGHIJ1RWXYZ/LB1 |
Departure
| Time | 2026-05-05 00:31 |
|---|---|
| Airport | Naples International Airport (LIRN) |
Arrival
| Time | 2026-05-05 01:13 |
|---|---|
| Airport | Split Saint Jerome Airport (LDSP) |
| Time | Latitude | Longitude | Altitude | Speed | Heading |
|---|---|---|---|---|---|
| 2026-05-05 00:24 | 40.87875 | 14.28342 | 290 ft | 0 kts | 187° |
| 2026-05-05 00:25 | 40.87894 | 14.28346 | 294 ft | 4 kts | 187° |
| 2026-05-05 00:25 | 40.87916 | 14.28349 | 292 ft | 4 kts | 188° |
| 2026-05-05 00:26 | 40.87938 | 14.28359 | 293 ft | 4 kts | 239° |
| 2026-05-05 00:26 | 40.87940 | 14.28386 | 296 ft | 4 kts | 277° |
| 2026-05-05 00:26 | 40.87939 | 14.28397 | 292 ft | 0 kts | 277° |
| 2026-05-05 00:28 | 40.87941 | 14.28375 | 298 ft | 8 kts | 277° |
| 2026-05-05 00:28 | 40.87953 | 14.28263 | 290 ft | 14 kts | 277° |
| 2026-05-05 00:28 | 40.87961 | 14.28132 | 292 ft | 15 kts | 256° |
| 2026-05-05 00:28 | 40.87898 | 14.28019 | 297 ft | 16 kts | 231° |
| 2026-05-05 00:29 | 40.87853 | 14.27903 | 300 ft | 13 kts | 289° |
| 2026-05-05 00:29 | 40.87929 | 14.27815 | 298 ft | 16 kts | 322° |
| 2026-05-05 00:29 | 40.88014 | 14.27828 | 299 ft | 9 kts | 62° |
| 2026-05-05 00:29 | 40.88026 | 14.27855 | 299 ft | 0 kts | 58° |
| 2026-05-05 00:30 | 40.88027 | 14.27856 | 299 ft | 0 kts | 58° |
| 2026-05-05 00:30 | 40.88065 | 14.27936 | 297 ft | 36 kts | 58° |
| 2026-05-05 00:30 | 40.88338 | 14.28516 | 280 ft | 109 kts | 58° |
| 2026-05-05 00:30 | 40.88846 | 14.29590 | 258 ft | 164 kts | 58° |
| 2026-05-05 00:31 | 40.89471 | 14.30885 | 853 ft | 164 kts | 58° |
| 2026-05-05 00:31 | 40.90074 | 14.32172 | 1549 ft | 166 kts | 58° |
| 2026-05-05 00:31 | 40.90682 | 14.33482 | 2178 ft | 168 kts | 59° |
| 2026-05-05 00:31 | 40.91292 | 14.34805 | 2789 ft | 169 kts | 59° |
| 2026-05-05 00:32 | 40.91912 | 14.36131 | 3390 ft | 170 kts | 59° |
| 2026-05-05 00:32 | 40.92557 | 14.37507 | 3757 ft | 187 kts | 59° |
| 2026-05-05 00:32 | 40.93326 | 14.39001 | 4057 ft | 207 kts | 46° |
| 2026-05-05 00:32 | 40.94581 | 14.40072 | 4306 ft | 227 kts | 16° |
| 2026-05-05 00:33 | 40.96175 | 14.40189 | 4832 ft | 234 kts | 347° |
| 2026-05-05 00:33 | 40.97642 | 14.39302 | 4949 ft | 231 kts | 315° |
| 2026-05-05 00:33 | 40.98529 | 14.37605 | 4984 ft | 224 kts | 286° |
| 2026-05-05 00:33 | 40.98703 | 14.35597 | 4990 ft | 220 kts | 259° |
| 2026-05-05 00:34 | 40.98161 | 14.33742 | 4985 ft | 217 kts | 232° |
| 2026-05-05 00:34 | 40.97470 | 14.32799 | 4987 ft | 216 kts | 216° |
| 2026-05-05 00:34 | 40.95734 | 14.31437 | 5063 ft | 218 kts | 210° |
| 2026-05-05 00:34 | 40.94873 | 14.30758 | 5065 ft | 217 kts | 212° |
| 2026-05-05 00:35 | 40.93577 | 14.29712 | 5071 ft | 218 kts | 211° |
| 2026-05-05 00:35 | 40.92112 | 14.28847 | 5180 ft | 247 kts | 189° |
| 2026-05-05 00:35 | 40.90368 | 14.29200 | 5731 ft | 267 kts | 154° |
| 2026-05-05 00:35 | 40.88771 | 14.31683 | 6752 ft | 282 kts | 109° |
| 2026-05-05 00:36 | 40.88603 | 14.33428 | 7294 ft | 288 kts | 86° |
| 2026-05-05 00:36 | 40.89217 | 14.35949 | 8094 ft | 293 kts | 62° |
| 2026-05-05 00:36 | 40.90339 | 14.38212 | 8938 ft | 296 kts | 53° |
| 2026-05-05 00:36 | 40.91634 | 14.40346 | 9762 ft | 300 kts | 50° |
| 2026-05-05 00:37 | 40.92988 | 14.42471 | 10479 ft | 307 kts | 50° |
| 2026-05-05 00:37 | 40.94386 | 14.44715 | 10815 ft | 327 kts | 51° |
| 2026-05-05 00:37 | 40.95822 | 14.47143 | 11252 ft | 340 kts | 52° |
| 2026-05-05 00:37 | 40.97242 | 14.49680 | 11961 ft | 345 kts | 53° |
| 2026-05-05 00:38 | 40.98641 | 14.52278 | 12700 ft | 348 kts | 54° |
| 2026-05-05 00:38 | 41.00037 | 14.54921 | 13417 ft | 352 kts | 54° |
| 2026-05-05 00:38 | 41.01445 | 14.57593 | 14121 ft | 356 kts | 54° |
| 2026-05-05 00:38 | 41.02867 | 14.60293 | 14737 ft | 359 kts | 54° |
| 2026-05-05 00:39 | 41.04321 | 14.63013 | 15345 ft | 363 kts | 51° |
| 2026-05-05 00:39 | 41.06046 | 14.65453 | 15938 ft | 365 kts | 39° |
| 2026-05-05 00:39 | 41.08132 | 14.67390 | 16525 ft | 367 kts | 26° |
| 2026-05-05 00:39 | 41.10453 | 14.68795 | 17140 ft | 368 kts | 20° |
| 2026-05-05 00:40 | 41.12824 | 14.70100 | 17770 ft | 371 kts | 20° |
| 2026-05-05 00:40 | 41.15184 | 14.71413 | 18352 ft | 374 kts | 20° |
| 2026-05-05 00:40 | 41.17591 | 14.72764 | 18881 ft | 377 kts | 20° |
| 2026-05-05 00:40 | 41.20020 | 14.74133 | 19401 ft | 381 kts | 20° |
| 2026-05-05 00:41 | 41.22468 | 14.75515 | 19922 ft | 384 kts | 20° |
| 2026-05-05 00:41 | 41.24935 | 14.76907 | 20441 ft | 387 kts | 20° |
| 2026-05-05 00:41 | 41.27402 | 14.78391 | 20931 ft | 392 kts | 22° |
| 2026-05-05 00:41 | 41.29865 | 14.79991 | 21425 ft | 395 kts | 23° |
| 2026-05-05 00:42 | 41.32330 | 14.81654 | 21907 ft | 399 kts | 24° |
| 2026-05-05 00:42 | 41.34807 | 14.83340 | 22366 ft | 402 kts | 24° |
| 2026-05-05 00:42 | 41.37310 | 14.85035 | 22846 ft | 405 kts | 23° |
| 2026-05-05 00:42 | 41.39835 | 14.86727 | 23302 ft | 408 kts | 23° |
| 2026-05-05 00:43 | 41.42386 | 14.88420 | 23750 ft | 411 kts | 22° |
| 2026-05-05 00:43 | 41.44960 | 14.90113 | 24125 ft | 414 kts | 22° |
| 2026-05-05 00:43 | 41.47550 | 14.91814 | 24489 ft | 417 kts | 22° |
| 2026-05-05 00:43 | 41.50155 | 14.93530 | 24866 ft | 418 kts | 22° |
| 2026-05-05 00:44 | 41.52766 | 14.95258 | 25296 ft | 419 kts | 22° |
| 2026-05-05 00:44 | 41.55381 | 14.96993 | 25684 ft | 420 kts | 21° |
| 2026-05-05 00:44 | 41.58008 | 14.98734 | 26077 ft | 422 kts | 21° |
| 2026-05-05 00:44 | 41.60645 | 15.00485 | 26458 ft | 425 kts | 21° |
| 2026-05-05 00:45 | 41.63299 | 15.02250 | 26834 ft | 427 kts | 21° |
| 2026-05-05 00:45 | 41.65963 | 15.04022 | 27196 ft | 429 kts | 21° |
| 2026-05-05 00:45 | 41.68649 | 15.05806 | 27542 ft | 432 kts | 21° |
| 2026-05-05 00:45 | 41.71342 | 15.07596 | 27887 ft | 434 kts | 20° |
| 2026-05-05 00:46 | 41.74052 | 15.09402 | 28064 ft | 434 kts | 20° |
| 2026-05-05 00:46 | 41.76706 | 15.11182 | 28086 ft | 418 kts | 20° |
| 2026-05-05 00:46 | 41.79265 | 15.12907 | 28078 ft | 408 kts | 20° |
| 2026-05-05 00:47 | 41.84311 | 15.16289 | 28079 ft | 404 kts | 20° |
| 2026-05-05 00:47 | 41.89302 | 15.19619 | 28074 ft | 403 kts | 20° |
| 2026-05-05 00:48 | 41.94324 | 15.22981 | 28073 ft | 403 kts | 20° |
| 2026-05-05 00:48 | 41.99343 | 15.26349 | 28078 ft | 403 kts | 20° |
| 2026-05-05 00:49 | 42.04358 | 15.29728 | 28080 ft | 403 kts | 20° |
| 2026-05-05 00:49 | 42.09352 | 15.33112 | 28085 ft | 401 kts | 20° |
| 2026-05-05 00:50 | 42.14328 | 15.36484 | 28082 ft | 400 kts | 20° |
| 2026-05-05 00:50 | 42.19296 | 15.39850 | 28088 ft | 399 kts | 20° |
| 2026-05-05 00:51 | 42.24258 | 15.43208 | 28085 ft | 398 kts | 20° |
| 2026-05-05 00:51 | 42.29376 | 15.45682 | 28079 ft | 384 kts | 2° |
| 2026-05-05 00:52 | 42.34591 | 15.45569 | 28047 ft | 371 kts | 343° |
| 2026-05-05 00:52 | 42.39576 | 15.43864 | 27941 ft | 368 kts | 340° |
| 2026-05-05 00:52 | 42.42026 | 15.43011 | 27675 ft | 360 kts | 340° |
| 2026-05-05 00:53 | 42.44443 | 15.42168 | 27420 ft | 357 kts | 340° |
| 2026-05-05 00:53 | 42.46847 | 15.41328 | 27163 ft | 356 kts | 340° |
| 2026-05-05 00:53 | 42.49242 | 15.40491 | 26908 ft | 355 kts | 340° |
| 2026-05-05 00:53 | 42.51632 | 15.39653 | 26655 ft | 355 kts | 340° |
| 2026-05-05 00:54 | 42.54021 | 15.38812 | 26409 ft | 354 kts | 340° |
| 2026-05-05 00:54 | 42.56405 | 15.37973 | 26158 ft | 354 kts | 340° |
| 2026-05-05 00:54 | 42.58787 | 15.37134 | 25911 ft | 353 kts | 340° |
| 2026-05-05 00:54 | 42.61156 | 15.36298 | 25660 ft | 349 kts | 341° |
| 2026-05-05 00:55 | 42.63464 | 15.35486 | 25255 ft | 346 kts | 341° |
| 2026-05-05 00:55 | 42.65786 | 15.34666 | 24835 ft | 344 kts | 341° |
| 2026-05-05 00:55 | 42.68099 | 15.33848 | 24404 ft | 343 kts | 341° |
| 2026-05-05 00:55 | 42.70404 | 15.33035 | 23968 ft | 342 kts | 341° |
| 2026-05-05 00:56 | 42.72704 | 15.32227 | 23512 ft | 342 kts | 341° |
| 2026-05-05 00:56 | 42.75004 | 15.31419 | 23041 ft | 340 kts | 341° |
| 2026-05-05 00:56 | 42.77285 | 15.30616 | 22616 ft | 338 kts | 341° |
| 2026-05-05 00:56 | 42.79552 | 15.29815 | 22186 ft | 335 kts | 341° |
| 2026-05-05 00:57 | 42.81803 | 15.29017 | 21771 ft | 334 kts | 342° |
| 2026-05-05 00:57 | 42.84045 | 15.28222 | 21357 ft | 332 kts | 341° |
| 2026-05-05 00:57 | 42.86275 | 15.27428 | 20945 ft | 331 kts | 341° |
| 2026-05-05 00:57 | 42.88500 | 15.26633 | 20534 ft | 330 kts | 341° |
| 2026-05-05 00:58 | 42.90714 | 15.25842 | 20123 ft | 329 kts | 342° |
| 2026-05-05 00:58 | 42.92927 | 15.25055 | 19718 ft | 328 kts | 342° |
| 2026-05-05 00:58 | 42.95138 | 15.24270 | 19310 ft | 328 kts | 342° |
| 2026-05-05 00:58 | 42.97348 | 15.23486 | 18909 ft | 328 kts | 342° |
| 2026-05-05 00:59 | 42.99556 | 15.22703 | 18509 ft | 328 kts | 342° |
| 2026-05-05 00:59 | 43.01794 | 15.22073 | 18076 ft | 331 kts | 353° |
| 2026-05-05 00:59 | 43.04093 | 15.22290 | 17666 ft | 334 kts | 11° |
| 2026-05-05 00:59 | 43.06220 | 15.23407 | 17272 ft | 336 kts | 28° |
| 2026-05-05 01:00 | 43.08088 | 15.25432 | 16847 ft | 338 kts | 47° |
| 2026-05-05 01:00 | 43.09508 | 15.28000 | 16440 ft | 339 kts | 53° |
| 2026-05-05 01:00 | 43.10878 | 15.30622 | 16044 ft | 339 kts | 53° |
| 2026-05-05 01:00 | 43.12250 | 15.33242 | 15634 ft | 339 kts | 54° |
| 2026-05-05 01:01 | 43.13623 | 15.35863 | 15236 ft | 339 kts | 54° |
| 2026-05-05 01:01 | 43.14999 | 15.38480 | 14832 ft | 339 kts | 53° |
| 2026-05-05 01:01 | 43.16379 | 15.41099 | 14441 ft | 339 kts | 54° |
| 2026-05-05 01:01 | 43.17756 | 15.43719 | 14050 ft | 339 kts | 54° |
| 2026-05-05 01:02 | 43.19129 | 15.46338 | 13621 ft | 339 kts | 54° |
| 2026-05-05 01:02 | 43.20481 | 15.48926 | 13217 ft | 338 kts | 54° |
| 2026-05-05 01:02 | 43.21840 | 15.51539 | 12818 ft | 336 kts | 54° |
| 2026-05-05 01:02 | 43.23193 | 15.54140 | 12416 ft | 334 kts | 54° |
| 2026-05-05 01:03 | 43.24541 | 15.56729 | 12000 ft | 333 kts | 55° |
| 2026-05-05 01:03 | 43.25893 | 15.59329 | 11541 ft | 334 kts | 55° |
| 2026-05-05 01:03 | 43.27236 | 15.61911 | 11130 ft | 333 kts | 55° |
| 2026-05-05 01:03 | 43.28568 | 15.64482 | 10718 ft | 331 kts | 57° |
| 2026-05-05 01:04 | 43.29508 | 15.67308 | 10369 ft | 325 kts | 79° |
| 2026-05-05 01:04 | 43.28794 | 15.72999 | 9792 ft | 294 kts | 126° |
| 2026-05-05 01:04 | 43.27470 | 15.75073 | 9147 ft | 287 kts | 138° |
| 2026-05-05 01:05 | 43.26050 | 15.76982 | 8519 ft | 283 kts | 136° |
| 2026-05-05 01:05 | 43.25003 | 15.79218 | 8052 ft | 278 kts | 110° |
| 2026-05-05 01:05 | 43.24795 | 15.81852 | 7579 ft | 283 kts | 83° |
| 2026-05-05 01:05 | 43.25499 | 15.84370 | 7129 ft | 287 kts | 55° |
| 2026-05-05 01:06 | 43.26846 | 15.86399 | 6689 ft | 289 kts | 46° |
| 2026-05-05 01:06 | 43.28261 | 15.88363 | 6285 ft | 288 kts | 46° |
| 2026-05-05 01:06 | 43.29664 | 15.90310 | 5822 ft | 289 kts | 46° |
| 2026-05-05 01:06 | 43.31070 | 15.92264 | 5386 ft | 288 kts | 46° |
| 2026-05-05 01:07 | 43.32464 | 15.94205 | 5114 ft | 282 kts | 46° |
| 2026-05-05 01:07 | 43.33829 | 15.96111 | 4792 ft | 278 kts | 46° |
| 2026-05-05 01:07 | 43.35176 | 15.97999 | 4375 ft | 276 kts | 46° |
| 2026-05-05 01:07 | 43.36501 | 15.99858 | 4182 ft | 266 kts | 46° |
| 2026-05-05 01:08 | 43.37771 | 16.01638 | 4047 ft | 255 kts | 46° |
| 2026-05-05 01:08 | 43.38997 | 16.03359 | 3778 ft | 250 kts | 46° |
| 2026-05-05 01:08 | 43.40198 | 16.05049 | 3581 ft | 242 kts | 49° |
| 2026-05-05 01:08 | 43.41183 | 16.06867 | 3449 ft | 233 kts | 57° |
| 2026-05-05 01:09 | 43.42100 | 16.08658 | 3319 ft | 225 kts | 55° |
| 2026-05-05 01:09 | 43.43027 | 16.10343 | 3220 ft | 216 kts | 54° |
| 2026-05-05 01:09 | 43.43937 | 16.11968 | 3049 ft | 213 kts | 54° |
| 2026-05-05 01:09 | 43.44834 | 16.13569 | 2788 ft | 210 kts | 54° |
| 2026-05-05 01:10 | 43.45717 | 16.15145 | 2501 ft | 204 kts | 55° |
| 2026-05-05 01:10 | 43.46551 | 16.16634 | 2236 ft | 189 kts | 55° |
| 2026-05-05 01:10 | 43.47329 | 16.18025 | 2009 ft | 176 kts | 55° |
| 2026-05-05 01:10 | 43.48056 | 16.19326 | 1758 ft | 167 kts | 55° |
| 2026-05-05 01:11 | 43.48750 | 16.20568 | 1538 ft | 161 kts | 54° |
| 2026-05-05 01:11 | 43.49428 | 16.21783 | 1323 ft | 158 kts | 52° |
| 2026-05-05 01:11 | 43.50095 | 16.22980 | 1112 ft | 157 kts | 52° |
| 2026-05-05 01:11 | 43.50758 | 16.24167 | 887 ft | 156 kts | 52° |
| 2026-05-05 01:12 | 43.51419 | 16.25349 | 687 ft | 155 kts | 52° |
| 2026-05-05 01:12 | 43.52078 | 16.26529 | 473 ft | 156 kts | 52° |
| 2026-05-05 01:12 | 43.52727 | 16.27694 | 269 ft | 156 kts | 52° |
| 2026-05-05 01:12 | 43.53386 | 16.28876 | 93 ft | 152 kts | 52° |
| 2026-05-05 01:13 | 43.53959 | 16.29910 | 71 ft | 113 kts | 52° |
| 2026-05-05 01:13 | 43.54332 | 16.30582 | 52 ft | 64 kts | 52° |
| 2026-05-05 01:13 | 43.54500 | 16.30887 | 57 ft | 24 kts | 51° |
| 2026-05-05 01:13 | 43.54552 | 16.31042 | 60 ft | 13 kts | 67° |
| 2026-05-05 01:14 | 43.54567 | 16.30993 | 54 ft | 14 kts | 225° |
| 2026-05-05 01:14 | 43.54469 | 16.30828 | 57 ft | 27 kts | 232° |
| 2026-05-05 01:14 | 43.54349 | 16.30611 | 56 ft | 30 kts | 232° |
| 2026-05-05 01:14 | 43.54222 | 16.30381 | 58 ft | 29 kts | 232° |
| 2026-05-05 01:15 | 43.54105 | 16.30180 | 72 ft | 23 kts | 224° |
| 2026-05-05 01:15 | 43.53999 | 16.30094 | 68 ft | 9 kts | 200° |
| 2026-05-05 01:15 | 43.53984 | 16.30087 | 67 ft | 3 kts | 197° |
| 2026-05-05 01:15 | 43.53922 | 16.30062 | 65 ft | 13 kts | 199° |
| 2026-05-05 01:16 | 43.53855 | 16.29968 | 65 ft | 13 kts | 232° |
| 2026-05-05 01:16 | 43.53791 | 16.29852 | 64 ft | 17 kts | 232° |
| 2026-05-05 01:16 | 43.53731 | 16.29742 | 68 ft | 8 kts | 226° |
| 2026-05-05 01:16 | 43.53702 | 16.29778 | 66 ft | 7 kts | 113° |
| 2026-05-05 01:17 | 43.53694 | 16.29804 | 66 ft | 0 kts | 114° |